CMP209 SKRG-MPTO
Flight info
| Callsign | CMP209 |
|---|---|
| Flight time | 0h 55m |
| Altitude | 36000 |
| Route | OPME3C OPMEL SIGUN ISOKO ISOK2B |
| Aircraft | B737/M-SDE3FGHIRWY/S |
Departure
| Time | 2026-04-20 01:06 |
|---|---|
| Airport | Jose Maria Córdova International Airport (SKRG) |
Arrival
| Time | 2026-04-20 02:02 |
|---|---|
| Airport | Tocumen International Airport (MPTO) |
| Time | Latitude | Longitude | Altitude | Speed | Heading |
|---|---|---|---|---|---|
| 2026-04-20 00:41 | 6.17286 | -75.42774 | 7017 ft | 0 kts | 211° |
| 2026-04-20 00:55 | 6.17295 | -75.42769 | 7017 ft | 4 kts | 205° |
| 2026-04-20 00:56 | 6.17318 | -75.42762 | 7021 ft | 4 kts | 179° |
| 2026-04-20 00:56 | 6.17344 | -75.42767 | 7020 ft | 4 kts | 155° |
| 2026-04-20 00:56 | 6.17366 | -75.42781 | 7017 ft | 4 kts | 129° |
| 2026-04-20 00:56 | 6.17375 | -75.42795 | 7017 ft | 0 kts | 107° |
| 2026-04-20 00:59 | 6.17374 | -75.42793 | 7017 ft | 1 kts | 107° |
| 2026-04-20 00:59 | 6.17368 | -75.42774 | 7019 ft | 5 kts | 110° |
| 2026-04-20 01:00 | 6.17349 | -75.42733 | 7017 ft | 8 kts | 117° |
| 2026-04-20 01:00 | 6.17316 | -75.42674 | 7019 ft | 11 kts | 123° |
| 2026-04-20 01:00 | 6.17250 | -75.42621 | 7018 ft | 14 kts | 169° |
| 2026-04-20 01:00 | 6.17144 | -75.42618 | 7018 ft | 17 kts | 179° |
| 2026-04-20 01:01 | 6.17023 | -75.42582 | 7014 ft | 21 kts | 149° |
| 2026-04-20 01:01 | 6.16893 | -75.42504 | 7007 ft | 22 kts | 150° |
| 2026-04-20 01:01 | 6.16729 | -75.42482 | 6998 ft | 23 kts | 180° |
| 2026-04-20 01:01 | 6.16561 | -75.42480 | 6990 ft | 25 kts | 179° |
| 2026-04-20 01:02 | 6.16395 | -75.42478 | 6983 ft | 24 kts | 180° |
| 2026-04-20 01:02 | 6.16218 | -75.42476 | 6977 ft | 26 kts | 180° |
| 2026-04-20 01:02 | 6.16031 | -75.42477 | 6975 ft | 27 kts | 180° |
| 2026-04-20 01:02 | 6.15845 | -75.42476 | 6974 ft | 26 kts | 180° |
| 2026-04-20 01:03 | 6.15673 | -75.42474 | 6974 ft | 24 kts | 179° |
| 2026-04-20 01:03 | 6.15511 | -75.42473 | 6975 ft | 23 kts | 179° |
| 2026-04-20 01:03 | 6.15356 | -75.42472 | 6976 ft | 22 kts | 180° |
| 2026-04-20 01:03 | 6.15205 | -75.42472 | 6976 ft | 21 kts | 179° |
| 2026-04-20 01:04 | 6.15058 | -75.42471 | 6977 ft | 21 kts | 181° |
| 2026-04-20 01:04 | 6.14925 | -75.42469 | 6976 ft | 11 kts | 172° |
| 2026-04-20 01:04 | 6.14887 | -75.42423 | 6975 ft | 3 kts | 93° |
| 2026-04-20 01:04 | 6.14887 | -75.42422 | 6975 ft | 0 kts | 92° |
| 2026-04-20 01:05 | 6.14887 | -75.42406 | 6975 ft | 9 kts | 92° |
| 2026-04-20 01:05 | 6.14921 | -75.42325 | 6975 ft | 15 kts | 41° |
| 2026-04-20 01:05 | 6.15025 | -75.42299 | 6974 ft | 29 kts | 359° |
| 2026-04-20 01:05 | 6.15529 | -75.42303 | 6981 ft | 114 kts | 359° |
| 2026-04-20 01:06 | 6.16563 | -75.42309 | 7048 ft | 176 kts | 360° |
| 2026-04-20 01:06 | 6.17807 | -75.42317 | 7998 ft | 173 kts | 1° |
| 2026-04-20 01:06 | 6.19018 | -75.42316 | 9059 ft | 178 kts | 0° |
| 2026-04-20 01:06 | 6.20334 | -75.42325 | 9752 ft | 204 kts | 0° |
| 2026-04-20 01:07 | 6.21885 | -75.42330 | 10064 ft | 241 kts | 360° |
| 2026-04-20 01:07 | 6.23696 | -75.42345 | 10323 ft | 280 kts | 359° |
| 2026-04-20 01:07 | 6.25691 | -75.42364 | 11123 ft | 296 kts | 359° |
| 2026-04-20 01:07 | 6.27760 | -75.42383 | 12288 ft | 299 kts | 359° |
| 2026-04-20 01:08 | 6.29862 | -75.42398 | 13409 ft | 304 kts | 359° |
| 2026-04-20 01:08 | 6.31998 | -75.42413 | 14463 ft | 310 kts | 359° |
| 2026-04-20 01:08 | 6.34179 | -75.42420 | 15438 ft | 317 kts | 359° |
| 2026-04-20 01:08 | 6.36390 | -75.42399 | 15812 ft | 319 kts | 360° |
| 2026-04-20 01:09 | 6.38623 | -75.42371 | 15894 ft | 322 kts | 360° |
| 2026-04-20 01:09 | 6.40863 | -75.42436 | 15934 ft | 323 kts | 347° |
| 2026-04-20 01:09 | 6.42868 | -75.43445 | 16622 ft | 327 kts | 320° |
| 2026-04-20 01:09 | 6.44383 | -75.45146 | 17610 ft | 332 kts | 304° |
| 2026-04-20 01:10 | 6.45650 | -75.47153 | 17952 ft | 357 kts | 300° |
| 2026-04-20 01:10 | 6.48199 | -75.51628 | 19383 ft | 374 kts | 299° |
| 2026-04-20 01:10 | 6.49495 | -75.53913 | 20257 ft | 378 kts | 300° |
| 2026-04-20 01:11 | 6.50815 | -75.56216 | 21068 ft | 382 kts | 300° |
| 2026-04-20 01:11 | 6.52160 | -75.58539 | 21825 ft | 387 kts | 300° |
| 2026-04-20 01:11 | 6.53529 | -75.60886 | 22566 ft | 391 kts | 300° |
| 2026-04-20 01:11 | 6.54918 | -75.63259 | 23229 ft | 396 kts | 300° |
| 2026-04-20 01:12 | 6.56329 | -75.65664 | 23858 ft | 401 kts | 300° |
| 2026-04-20 01:12 | 6.57758 | -75.68098 | 24445 ft | 407 kts | 300° |
| 2026-04-20 01:12 | 6.59184 | -75.70527 | 25040 ft | 411 kts | 300° |
| 2026-04-20 01:12 | 6.60641 | -75.73010 | 25632 ft | 414 kts | 300° |
| 2026-04-20 01:13 | 6.62111 | -75.75517 | 26205 ft | 418 kts | 300° |
| 2026-04-20 01:13 | 6.63596 | -75.78051 | 26750 ft | 422 kts | 300° |
| 2026-04-20 01:13 | 6.65096 | -75.80609 | 27299 ft | 426 kts | 300° |
| 2026-04-20 01:13 | 6.66610 | -75.83193 | 27832 ft | 430 kts | 300° |
| 2026-04-20 01:14 | 6.68135 | -75.85796 | 28334 ft | 433 kts | 299° |
| 2026-04-20 01:14 | 6.69674 | -75.88423 | 28822 ft | 437 kts | 299° |
| 2026-04-20 01:14 | 6.71224 | -75.91068 | 29291 ft | 440 kts | 299° |
| 2026-04-20 01:14 | 6.72783 | -75.93727 | 29770 ft | 443 kts | 299° |
| 2026-04-20 01:15 | 6.74188 | -75.96473 | 30420 ft | 439 kts | 290° |
| 2026-04-20 01:15 | 6.75237 | -75.99342 | 31137 ft | 435 kts | 288° |
| 2026-04-20 01:15 | 6.76217 | -76.02211 | 31813 ft | 433 kts | 287° |
| 2026-04-20 01:15 | 6.77183 | -76.05090 | 32413 ft | 434 kts | 287° |
| 2026-04-20 01:16 | 6.78151 | -76.07970 | 33023 ft | 433 kts | 287° |
| 2026-04-20 01:16 | 6.79110 | -76.10801 | 33666 ft | 431 kts | 288° |
| 2026-04-20 01:16 | 6.80079 | -76.13642 | 34299 ft | 429 kts | 288° |
| 2026-04-20 01:16 | 6.81053 | -76.16475 | 34843 ft | 428 kts | 288° |
| 2026-04-20 01:17 | 6.82031 | -76.19307 | 35371 ft | 427 kts | 288° |
| 2026-04-20 01:17 | 6.83005 | -76.22123 | 35905 ft | 426 kts | 288° |
| 2026-04-20 01:17 | 6.84965 | -76.27779 | 36015 ft | 425 kts | 288° |
| 2026-04-20 01:18 | 6.86913 | -76.33404 | 36018 ft | 426 kts | 288° |
| 2026-04-20 01:18 | 6.88861 | -76.39040 | 36008 ft | 427 kts | 288° |
| 2026-04-20 01:19 | 6.90801 | -76.44656 | 36000 ft | 427 kts | 288° |
| 2026-04-20 01:19 | 6.92756 | -76.50308 | 35986 ft | 427 kts | 288° |
| 2026-04-20 01:20 | 6.94707 | -76.55956 | 35972 ft | 426 kts | 288° |
| 2026-04-20 01:20 | 6.96652 | -76.61590 | 35966 ft | 426 kts | 288° |
| 2026-04-20 01:21 | 6.98597 | -76.67226 | 35925 ft | 426 kts | 288° |
| 2026-04-20 01:21 | 7.00542 | -76.72861 | 35911 ft | 425 kts | 288° |
| 2026-04-20 01:22 | 7.02467 | -76.78445 | 35907 ft | 424 kts | 288° |
| 2026-04-20 01:22 | 7.04403 | -76.84062 | 35908 ft | 424 kts | 288° |
| 2026-04-20 01:23 | 7.06339 | -76.89683 | 35910 ft | 425 kts | 288° |
| 2026-04-20 01:23 | 7.08269 | -76.95289 | 35908 ft | 426 kts | 288° |
| 2026-04-20 01:24 | 7.10213 | -77.00935 | 35908 ft | 426 kts | 288° |
| 2026-04-20 01:24 | 7.12157 | -77.06582 | 35906 ft | 427 kts | 288° |
| 2026-04-20 01:25 | 7.14103 | -77.12240 | 35908 ft | 427 kts | 288° |
| 2026-04-20 01:25 | 7.16034 | -77.17858 | 35908 ft | 427 kts | 288° |
| 2026-04-20 01:26 | 7.17977 | -77.23512 | 35901 ft | 427 kts | 288° |
| 2026-04-20 01:26 | 7.19923 | -77.29178 | 35898 ft | 427 kts | 288° |
| 2026-04-20 01:27 | 7.21867 | -77.34838 | 35899 ft | 427 kts | 288° |
| 2026-04-20 01:27 | 7.23795 | -77.40460 | 35897 ft | 427 kts | 288° |
| 2026-04-20 01:28 | 7.25735 | -77.46111 | 35897 ft | 427 kts | 288° |
| 2026-04-20 01:28 | 7.27672 | -77.51762 | 35897 ft | 427 kts | 288° |
| 2026-04-20 01:29 | 7.29281 | -77.56456 | 35899 ft | 427 kts | 288° |
| 2026-04-20 01:29 | 7.31218 | -77.62111 | 35898 ft | 427 kts | 288° |
| 2026-04-20 01:30 | 7.33159 | -77.67783 | 35898 ft | 427 kts | 288° |
| 2026-04-20 01:30 | 7.35093 | -77.73438 | 35900 ft | 427 kts | 288° |
| 2026-04-20 01:31 | 7.37027 | -77.79099 | 35899 ft | 427 kts | 288° |
| 2026-04-20 01:31 | 7.39199 | -77.84624 | 35878 ft | 428 kts | 303° |
| 2026-04-20 01:32 | 7.43026 | -77.89228 | 35898 ft | 429 kts | 311° |
| 2026-04-20 01:32 | 7.47016 | -77.93720 | 35900 ft | 430 kts | 311° |
| 2026-04-20 01:33 | 7.50980 | -77.98239 | 35898 ft | 431 kts | 310° |
| 2026-04-20 01:33 | 7.54920 | -78.02789 | 35894 ft | 431 kts | 310° |
| 2026-04-20 01:34 | 7.56898 | -78.05083 | 35450 ft | 433 kts | 310° |
| 2026-04-20 01:34 | 7.58840 | -78.07340 | 34920 ft | 431 kts | 310° |
| 2026-04-20 01:34 | 7.60801 | -78.09616 | 34508 ft | 426 kts | 310° |
| 2026-04-20 01:34 | 7.62731 | -78.11858 | 34050 ft | 421 kts | 310° |
| 2026-04-20 01:35 | 7.64642 | -78.14077 | 33615 ft | 417 kts | 310° |
| 2026-04-20 01:35 | 7.66537 | -78.16279 | 33183 ft | 413 kts | 311° |
| 2026-04-20 01:35 | 7.68411 | -78.18456 | 32751 ft | 409 kts | 311° |
| 2026-04-20 01:35 | 7.70267 | -78.20615 | 32328 ft | 405 kts | 311° |
| 2026-04-20 01:36 | 7.72107 | -78.22754 | 31915 ft | 402 kts | 311° |
| 2026-04-20 01:36 | 7.73937 | -78.24880 | 31505 ft | 398 kts | 311° |
| 2026-04-20 01:36 | 7.75742 | -78.26978 | 31097 ft | 395 kts | 311° |
| 2026-04-20 01:36 | 7.77514 | -78.29038 | 30694 ft | 392 kts | 311° |
| 2026-04-20 01:37 | 7.79296 | -78.31109 | 30291 ft | 388 kts | 311° |
| 2026-04-20 01:37 | 7.81057 | -78.33158 | 29887 ft | 385 kts | 311° |
| 2026-04-20 01:37 | 7.82804 | -78.35189 | 29495 ft | 381 kts | 311° |
| 2026-04-20 01:37 | 7.84533 | -78.37200 | 29077 ft | 378 kts | 311° |
| 2026-04-20 01:38 | 7.86244 | -78.39194 | 28653 ft | 374 kts | 311° |
| 2026-04-20 01:38 | 7.87940 | -78.41168 | 28231 ft | 371 kts | 312° |
| 2026-04-20 01:38 | 7.89622 | -78.43124 | 27813 ft | 367 kts | 312° |
| 2026-04-20 01:38 | 7.91289 | -78.45064 | 27396 ft | 364 kts | 312° |
| 2026-04-20 01:39 | 7.92943 | -78.46989 | 26981 ft | 361 kts | 312° |
| 2026-04-20 01:39 | 7.94578 | -78.48893 | 26569 ft | 358 kts | 312° |
| 2026-04-20 01:39 | 7.96182 | -78.50760 | 26166 ft | 355 kts | 312° |
| 2026-04-20 01:39 | 7.97791 | -78.52632 | 25759 ft | 352 kts | 312° |
| 2026-04-20 01:40 | 7.99391 | -78.54496 | 25347 ft | 349 kts | 312° |
| 2026-04-20 01:40 | 8.00974 | -78.56340 | 24947 ft | 345 kts | 312° |
| 2026-04-20 01:40 | 8.02525 | -78.58149 | 24547 ft | 342 kts | 313° |
| 2026-04-20 01:40 | 8.04081 | -78.59961 | 24144 ft | 339 kts | 313° |
| 2026-04-20 01:41 | 8.05620 | -78.61753 | 23745 ft | 336 kts | 313° |
| 2026-04-20 01:41 | 8.07145 | -78.63530 | 23345 ft | 334 kts | 313° |
| 2026-04-20 01:41 | 8.08662 | -78.65301 | 22945 ft | 333 kts | 313° |
| 2026-04-20 01:41 | 8.10184 | -78.67075 | 22552 ft | 335 kts | 312° |
| 2026-04-20 01:42 | 8.11722 | -78.68868 | 22149 ft | 340 kts | 312° |
| 2026-04-20 01:42 | 8.13284 | -78.70688 | 21739 ft | 345 kts | 312° |
| 2026-04-20 01:42 | 8.14859 | -78.72524 | 21311 ft | 345 kts | 312° |
| 2026-04-20 01:42 | 8.16422 | -78.74348 | 20882 ft | 341 kts | 312° |
| 2026-04-20 01:43 | 8.17948 | -78.76131 | 20467 ft | 338 kts | 312° |
| 2026-04-20 01:43 | 8.19480 | -78.77920 | 20052 ft | 334 kts | 312° |
| 2026-04-20 01:43 | 8.20991 | -78.79685 | 19642 ft | 331 kts | 312° |
| 2026-04-20 01:43 | 8.22489 | -78.81434 | 19236 ft | 327 kts | 312° |
| 2026-04-20 01:44 | 8.24000 | -78.83143 | 18845 ft | 323 kts | 315° |
| 2026-04-20 01:44 | 8.25598 | -78.84717 | 18465 ft | 319 kts | 317° |
| 2026-04-20 01:44 | 8.27222 | -78.86234 | 18070 ft | 316 kts | 319° |
| 2026-04-20 01:44 | 8.28839 | -78.87729 | 17678 ft | 314 kts | 318° |
| 2026-04-20 01:45 | 8.30439 | -78.89214 | 17287 ft | 311 kts | 318° |
| 2026-04-20 01:45 | 8.32028 | -78.90696 | 16902 ft | 308 kts | 318° |
| 2026-04-20 01:45 | 8.33593 | -78.92163 | 16552 ft | 305 kts | 317° |
| 2026-04-20 01:45 | 8.35116 | -78.93595 | 16168 ft | 302 kts | 317° |
| 2026-04-20 01:46 | 8.36652 | -78.95043 | 15754 ft | 301 kts | 317° |
| 2026-04-20 01:46 | 8.38169 | -78.96476 | 15408 ft | 297 kts | 317° |
| 2026-04-20 01:46 | 8.39670 | -78.97896 | 15029 ft | 295 kts | 317° |
| 2026-04-20 01:46 | 8.41161 | -78.99308 | 14657 ft | 292 kts | 317° |
| 2026-04-20 01:47 | 8.42638 | -79.00707 | 14281 ft | 290 kts | 316° |
| 2026-04-20 01:47 | 8.44104 | -79.02094 | 13903 ft | 287 kts | 316° |
| 2026-04-20 01:47 | 8.45557 | -79.03470 | 13535 ft | 285 kts | 316° |
| 2026-04-20 01:47 | 8.47003 | -79.04839 | 13162 ft | 283 kts | 316° |
| 2026-04-20 01:48 | 8.48432 | -79.06193 | 12794 ft | 281 kts | 316° |
| 2026-04-20 01:48 | 8.49851 | -79.07538 | 12433 ft | 278 kts | 316° |
| 2026-04-20 01:48 | 8.51257 | -79.08870 | 12069 ft | 276 kts | 316° |
| 2026-04-20 01:48 | 8.52654 | -79.10195 | 11706 ft | 274 kts | 316° |
| 2026-04-20 01:49 | 8.54041 | -79.11510 | 11340 ft | 272 kts | 316° |
| 2026-04-20 01:49 | 8.55396 | -79.12795 | 10985 ft | 270 kts | 316° |
| 2026-04-20 01:49 | 8.56771 | -79.14099 | 10632 ft | 273 kts | 316° |
| 2026-04-20 01:49 | 8.58174 | -79.15431 | 10273 ft | 281 kts | 317° |
| 2026-04-20 01:50 | 8.59601 | -79.16784 | 10052 ft | 277 kts | 317° |
| 2026-04-20 01:50 | 8.60997 | -79.18109 | 9692 ft | 274 kts | 317° |
| 2026-04-20 01:50 | 8.62383 | -79.19424 | 9337 ft | 271 kts | 317° |
| 2026-04-20 01:50 | 8.63750 | -79.20722 | 8982 ft | 268 kts | 317° |
| 2026-04-20 01:51 | 8.65086 | -79.21990 | 8640 ft | 266 kts | 317° |
| 2026-04-20 01:51 | 8.66432 | -79.23267 | 8282 ft | 264 kts | 318° |
| 2026-04-20 01:51 | 8.67757 | -79.24537 | 7976 ft | 261 kts | 315° |
| 2026-04-20 01:51 | 8.68952 | -79.25912 | 7765 ft | 263 kts | 311° |
| 2026-04-20 01:52 | 8.70117 | -79.27363 | 7555 ft | 269 kts | 310° |
| 2026-04-20 01:52 | 8.71295 | -79.28844 | 7335 ft | 272 kts | 310° |
| 2026-04-20 01:52 | 8.72489 | -79.30336 | 7104 ft | 271 kts | 310° |
| 2026-04-20 01:52 | 8.73675 | -79.31811 | 6881 ft | 269 kts | 310° |
| 2026-04-20 01:53 | 8.74858 | -79.33277 | 6662 ft | 268 kts | 310° |
| 2026-04-20 01:53 | 8.76023 | -79.34717 | 6449 ft | 267 kts | 311° |
| 2026-04-20 01:53 | 8.77193 | -79.36161 | 6235 ft | 264 kts | 311° |
| 2026-04-20 01:53 | 8.78353 | -79.37591 | 6021 ft | 262 kts | 311° |
| 2026-04-20 01:54 | 8.79504 | -79.39008 | 5812 ft | 260 kts | 311° |
| 2026-04-20 01:54 | 8.80645 | -79.40411 | 5598 ft | 254 kts | 311° |
| 2026-04-20 01:54 | 8.81729 | -79.41791 | 5389 ft | 247 kts | 308° |
| 2026-04-20 01:54 | 8.82730 | -79.43179 | 5194 ft | 244 kts | 307° |
| 2026-04-20 01:55 | 8.83723 | -79.44567 | 5007 ft | 244 kts | 308° |
| 2026-04-20 01:55 | 8.84728 | -79.45965 | 4818 ft | 247 kts | 308° |
| 2026-04-20 01:55 | 8.85733 | -79.47358 | 4607 ft | 242 kts | 308° |
| 2026-04-20 01:55 | 8.86712 | -79.48716 | 4409 ft | 236 kts | 308° |
| 2026-04-20 01:56 | 8.87828 | -79.49846 | 4226 ft | 221 kts | 332° |
| 2026-04-20 01:56 | 8.89243 | -79.50244 | 4047 ft | 206 kts | 358° |
| 2026-04-20 01:56 | 8.90608 | -79.50029 | 3837 ft | 194 kts | 18° |
| 2026-04-20 01:56 | 8.91738 | -79.49355 | 3627 ft | 185 kts | 38° |
| 2026-04-20 01:57 | 8.92690 | -79.48531 | 3432 ft | 176 kts | 38° |
| 2026-04-20 01:57 | 8.93593 | -79.47749 | 3248 ft | 166 kts | 37° |
| 2026-04-20 01:57 | 8.94445 | -79.47008 | 3088 ft | 162 kts | 37° |
| 2026-04-20 01:57 | 8.95302 | -79.46265 | 2929 ft | 161 kts | 37° |
| 2026-04-20 01:58 | 8.96138 | -79.45535 | 2774 ft | 153 kts | 37° |
| 2026-04-20 01:58 | 8.96963 | -79.44916 | 2616 ft | 140 kts | 28° |
| 2026-04-20 01:58 | 8.97782 | -79.44424 | 2391 ft | 133 kts | 27° |
| 2026-04-20 01:58 | 8.98585 | -79.43946 | 2207 ft | 135 kts | 27° |
| 2026-04-20 01:59 | 8.99405 | -79.43456 | 2017 ft | 137 kts | 27° |
| 2026-04-20 01:59 | 9.00230 | -79.42965 | 1823 ft | 138 kts | 28° |
| 2026-04-20 01:59 | 9.01066 | -79.42467 | 1613 ft | 145 kts | 32° |
| 2026-04-20 01:59 | 9.01918 | -79.41955 | 1437 ft | 139 kts | 31° |
| 2026-04-20 02:00 | 9.02738 | -79.41463 | 1222 ft | 135 kts | 30° |
| 2026-04-20 02:00 | 9.03550 | -79.40976 | 1036 ft | 136 kts | 30° |
| 2026-04-20 02:00 | 9.04365 | -79.40487 | 842 ft | 137 kts | 31° |
| 2026-04-20 02:00 | 9.05177 | -79.39999 | 660 ft | 138 kts | 30° |
| 2026-04-20 02:01 | 9.06009 | -79.39500 | 432 ft | 141 kts | 31° |
| 2026-04-20 02:01 | 9.06859 | -79.38986 | 197 ft | 144 kts | 31° |
| 2026-04-20 02:01 | 9.07702 | -79.38477 | 52 ft | 133 kts | 31° |
| 2026-04-20 02:01 | 9.08377 | -79.38072 | 45 ft | 91 kts | 30° |
| 2026-04-20 02:02 | 9.08763 | -79.37841 | 47 ft | 33 kts | 31° |
| 2026-04-20 02:02 | 9.08802 | -79.37712 | 37 ft | 24 kts | 118° |
| 2026-04-20 02:02 | 9.08724 | -79.37584 | 29 ft | 17 kts | 135° |
| 2026-04-20 02:02 | 9.08619 | -79.37610 | 30 ft | 17 kts | 215° |
| 2026-04-20 02:03 | 9.08522 | -79.37672 | 30 ft | 16 kts | 218° |
| 2026-04-20 02:03 | 9.08434 | -79.37753 | 30 ft | 18 kts | 224° |
| 2026-04-20 02:03 | 9.08338 | -79.37849 | 31 ft | 20 kts | 225° |
| 2026-04-20 02:03 | 9.08236 | -79.37956 | 32 ft | 22 kts | 226° |
| 2026-04-20 02:04 | 9.08117 | -79.38053 | 33 ft | 23 kts | 212° |
| 2026-04-20 02:04 | 9.07977 | -79.38138 | 32 ft | 25 kts | 210° |
| 2026-04-20 02:04 | 9.07834 | -79.38228 | 33 ft | 21 kts | 210° |
| 2026-04-20 02:04 | 9.07714 | -79.38295 | 33 ft | 19 kts | 208° |
| 2026-04-20 02:05 | 9.07593 | -79.38368 | 33 ft | 21 kts | 212° |
| 2026-04-20 02:05 | 9.07465 | -79.38447 | 33 ft | 19 kts | 211° |
| 2026-04-20 02:05 | 9.07362 | -79.38509 | 34 ft | 18 kts | 211° |
| 2026-04-20 02:05 | 9.07258 | -79.38566 | 33 ft | 17 kts | 205° |
| 2026-04-20 02:06 | 9.07162 | -79.38616 | 32 ft | 9 kts | 207° |
| 2026-04-20 02:06 | 9.07125 | -79.38626 | 31 ft | 4 kts | 156° |
| 2026-04-20 02:06 | 9.07108 | -79.38603 | 31 ft | 2 kts | 121° |
| 2026-04-20 02:06 | 9.07104 | -79.38596 | 28 ft | 0 kts | 120° |